Point Vicente — WDB9763 — position and weather

sailwx.info

Track history (hours):
 
Tides and Currents Weather Stations Pressure Air Temp Water Temp Dewpoint Dewpoint Depression Visibility Wind Speed Wind Dir Waves Ship Positions

Point Vicente

Owner: Foss Maritime Company, Seattle, WA. More information available from US FCC via Universal Licensing System and Coast Guard Vessel Documentation Center.

Last reported at 2016-Jun-30 05:32 UTC. Time now 2016-Jun-30 06:55 UTC.
Position N 37°53' W 122°24'.

Length 32 m; draft 4.3 m.

Type: Tug. MMSI: 366982330.

Date/timePositionNaut miles runAvg speedWind from/ knotsBaromVisibWave heightAir tempDewpointWater temp
2016-Jun-30 05:32N 37°53' W 122°24'4 4.4
2016-Jun-30 04:32N 37°49' W 122°21'4 3.7
2016-Jun-30 03:33N 37°46' W 122°21'0 0.1
2016-Jun-30 02:34N 37°45' W 122°21'0 0.0
2016-Jun-30 01:34N 37°45' W 122°21'0 0.0
2016-Jun-30 00:34N 37°45' W 122°21'0 0.0
2016-Jun-29 23:34N 37°45' W 122°21'0 0.2
2016-Jun-29 22:33N 37°46' W 122°21'4 3.7
2016-Jun-29 21:33N 37°49' W 122°22'0 0.0
2016-Jun-29 20:33N 37°49' W 122°22'0 0.0
2016-Jun-29 19:33N 37°49' W 122°22'0 0.0
2016-Jun-29 18:33N 37°49' W 122°22'6 6.1
2016-Jun-29 17:33N 37°43' W 122°20'3 3.2
2016-Jun-29 16:33N 37°46' W 122°21'6 6.4
2016-Jun-29 15:33N 37°49' W 122°29'4 4.4
2016-Jun-29 14:33N 37°51' W 122°24'3 0.1
2016-Jun-28 10:14N 37°55' W 122°24'2 1.1
2016-Jun-28 08:27N 37°55' W 122°22'0 0.0
2016-Jun-27 21:18N 37°54' W 122°22'1 1.7
2016-Jun-27 20:31N 37°54' W 122°24'6 6.5
2016-Jun-27 19:33N 37°49' W 122°21'3 2.7
2016-Jun-27 18:32N 37°48' W 122°18'0 0.0
2016-Jun-27 17:29N 37°48' W 122°18'0 0.0
2016-Jun-27 16:29N 37°48' W 122°18'0 0.0
2016-Jun-27 15:32N 37°48' W 122°18'0 0.0
2016-Jun-27 14:32N 37°48' W 122°18'0 0.2
2016-Jun-27 13:33N 37°48' W 122°18'2 1.6
2016-Jun-27 12:34N 37°48' W 122°20'4 4.0
2016-Jun-27 11:33N 37°51' W 122°23'3 2.5
2016-Jun-27 10:18N 37°54' W 122°22'0 0.0
2016-Jun-27 09:33N 37°54' W 122°22'0 0.0
2016-Jun-27 08:33N 37°54' W 122°22'0 0.0
2016-Jun-27 07:34N 37°54' W 122°22'0 0.0
2016-Jun-27 02:25N 37°54' W 122°22'0 0.0
2016-Jun-27 01:29N 37°54' W 122°22'0 0.0
2016-Jun-27 00:33N 37°54' W 122°22'2 0.7
2016-Jun-26 21:33N 37°55' W 122°25'5 5.5
2016-Jun-26 20:33N 38°00' W 122°24'7 7.3
2016-Jun-26 19:33N 38°04' W 122°16'6 1.2
2016-Jun-26 14:26N 38°02' W 122°08'1 0.7
2016-Jun-26 13:33N 38°02' W 122°09'4 3.8
2016-Jun-26 12:33N 38°04' W 122°13'7 6.9
2016-Jun-26 11:33N 38°02' W 122°21'7 6.4
2016-Jun-26 10:32N 37°56' W 122°26'3 0.5
2016-Jun-26 03:22N 37°54' W 122°22'0 0.0
2016-Jun-26 02:16N 37°54' W 122°22'0 0.0
2016-Jun-26 01:31N 37°54' W 122°22'0 0.0
2016-Jun-26 00:34N 37°54' W 122°22'0 0.0
2016-Jun-25 23:28N 37°54' W 122°22'0 0.0
2016-Jun-25 21:28N 37°54' W 122°22'0 0.0
2016-Jun-25 20:31N 37°54' W 122°22'0 0.0
2016-Jun-25 15:28N 37°54' W 122°22'0 0.0
2016-Jun-25 14:34N 37°54' W 122°22'0 0.0
2016-Jun-25 13:34N 37°54' W 122°22'0 0.0
2016-Jun-25 12:16N 37°54' W 122°22'0 0.0
2016-Jun-25 11:34N 37°54' W 122°22'0 0.0
2016-Jun-25 06:16N 37°54' W 122°22'0 0.0
2016-Jun-25 03:31N 37°54' W 122°22'0 0.0
2016-Jun-24 23:19N 37°54' W 122°22'0 0.0
2016-Jun-24 21:27N 37°54' W 122°22'0 0.0
2016-Jun-24 14:09N 37°54' W 122°22'0 0.0
2016-Jun-24 10:15N 37°54' W 122°22'0 0.0
2016-Jun-24 08:24N 37°54' W 122°22'0 0.0
2016-Jun-24 03:25N 37°54' W 122°22'7 8.0
2016-Jun-24 02:33N 38°01' W 122°23'7 6.9
2016-Jun-24 01:30N 38°06' W 122°16'0 0.0
2016-Jun-23 23:32N 38°06' W 122°16'0 0.0
2016-Jun-23 22:33N 38°06' W 122°16'0 0.1
2016-Jun-23 21:29N 38°06' W 122°16'2 2.1
2016-Jun-23 20:33N 38°04' W 122°15'10 9.7
2016-Jun-23 19:33N 37°59' W 122°26'5 0.5
2016-Jun-23 08:16N 37°54' W 122°22'0 0.0
2016-Jun-23 07:04N 37°54' W 122°22'4 0.2
2016-Jun-22 09:33N 37°51' W 122°23'6 6.1
2016-Jun-22 08:33N 37°45' W 122°20'0 0.0
2016-Jun-22 07:33N 37°45' W 122°20'0 0.1
2016-Jun-22 06:33N 37°45' W 122°20'0 0.1
2016-Jun-22 05:33N 37°45' W 122°20'0 0.0
2016-Jun-22 04:33N 37°45' W 122°20'3 3.2
2016-Jun-22 03:33N 37°48' W 122°18'0 0.0
2016-Jun-22 02:23N 37°48' W 122°18'0 0.0
2016-Jun-22 01:32N 37°48' W 122°18'0 0.0
2016-Jun-22 00:32N 37°48' W 122°18'2 2.1
2016-Jun-21 23:34N 37°48' W 122°20'4 4.1
2016-Jun-21 22:33N 37°51' W 122°24'3 0.5
2016-Jun-21 16:32N 37°54' W 122°22'0 0.1
2016-Jun-21 15:29N 37°54' W 122°22'0 0.0
2016-Jun-21 14:31N 37°54' W 122°22'0 0.0
2016-Jun-21 13:33N 37°54' W 122°22'0 0.0
2016-Jun-21 12:33N 37°54' W 122°22'0 0.0
2016-Jun-21 11:33N 37°54' W 122°22'0 0.0
2016-Jun-21 10:33N 37°54' W 122°22'0 0.0
2016-Jun-21 09:33N 37°54' W 122°22'0 0.0
2016-Jun-21 08:33N 37°54' W 122°22'0 0.0
2016-Jun-21 07:34N 37°54' W 122°22'0 0.0
2016-Jun-21 04:33N 37°54' W 122°22'0 0.0
2016-Jun-21 03:33N 37°54' W 122°22'0 0.0
2016-Jun-21 02:32N 37°54' W 122°22'0 0.0
2016-Jun-20 23:33N 37°54' W 122°22'0 0.1
2016-Jun-20 22:33N 37°54' W 122°22'1 1.1
2016-Jun-20 21:34N 37°54' W 122°24'7 6.8
2016-Jun-20 20:33N 37°48' W 122°20'2 2.0
2016-Jun-20 19:33N 37°48' W 122°18'0 0.0
2016-Jun-20 18:33N 37°48' W 122°18'0 0.0
2016-Jun-20 17:34N 37°48' W 122°18'0 0.0
2016-Jun-20 16:34N 37°48' W 122°18'0 0.0
2016-Jun-20 15:34N 37°48' W 122°18'0 0.4
2016-Jun-20 14:34N 37°48' W 122°18'6 5.8
2016-Jun-20 13:33N 37°52' W 122°24'  
Track history (hours):
 
Tides and Currents Weather Stations Pressure Air Temp Water Temp Dewpoint Dewpoint Depression Visibility Wind Speed Wind Dir Waves Ship Positions

Point Vicente

Owner: Foss Maritime Company, Seattle, WA. More information available from US FCC via Universal Licensing System and Coast Guard Vessel Documentation Center.

Last reported at 2016-Jun-30 05:32 UTC. Time now 2016-Jun-30 06:55 UTC.
Position N 37°53' W 122°24'.

Length 32 m; draft 4.3 m.

Type: Tug. MMSI: 366982330.

Date/timePositionNaut miles runAvg speedWind from/ knotsBaromVisibWave heightAir tempDewpointWater temp
2016-Jun-30 05:32N 37°53' W 122°24'4 4.4
2016-Jun-30 04:32N 37°49' W 122°21'4 3.7
2016-Jun-30 03:33N 37°46' W 122°21'0 0.1
2016-Jun-30 02:34N 37°45' W 122°21'0 0.0
2016-Jun-30 01:34N 37°45' W 122°21'0 0.0
2016-Jun-30 00:34N 37°45' W 122°21'0 0.0
2016-Jun-29 23:34N 37°45' W 122°21'0 0.2
2016-Jun-29 22:33N 37°46' W 122°21'4 3.7
2016-Jun-29 21:33N 37°49' W 122°22'0 0.0
2016-Jun-29 20:33N 37°49' W 122°22'0 0.0
2016-Jun-29 19:33N 37°49' W 122°22'0 0.0
2016-Jun-29 18:33N 37°49' W 122°22'6 6.1
2016-Jun-29 17:33N 37°43' W 122°20'3 3.2
2016-Jun-29 16:33N 37°46' W 122°21'6 6.4
2016-Jun-29 15:33N 37°49' W 122°29'4 4.4
2016-Jun-29 14:33N 37°51' W 122°24'3 0.1
2016-Jun-28 10:14N 37°55' W 122°24'2 1.1
2016-Jun-28 08:27N 37°55' W 122°22'0 0.0
2016-Jun-27 21:18N 37°54' W 122°22'1 1.7
2016-Jun-27 20:31N 37°54' W 122°24'6 6.5
2016-Jun-27 19:33N 37°49' W 122°21'3 2.7
2016-Jun-27 18:32N 37°48' W 122°18'0 0.0
2016-Jun-27 17:29N 37°48' W 122°18'0 0.0
2016-Jun-27 16:29N 37°48' W 122°18'0 0.0
2016-Jun-27 15:32N 37°48' W 122°18'0 0.0
2016-Jun-27 14:32N 37°48' W 122°18'0 0.2
2016-Jun-27 13:33N 37°48' W 122°18'2 1.6
2016-Jun-27 12:34N 37°48' W 122°20'4 4.0
2016-Jun-27 11:33N 37°51' W 122°23'3 2.5
2016-Jun-27 10:18N 37°54' W 122°22'0 0.0
2016-Jun-27 09:33N 37°54' W 122°22'0 0.0
2016-Jun-27 08:33N 37°54' W 122°22'0 0.0
2016-Jun-27 07:34N 37°54' W 122°22'0 0.0
2016-Jun-27 02:25N 37°54' W 122°22'0 0.0
2016-Jun-27 01:29N 37°54' W 122°22'0 0.0
2016-Jun-27 00:33N 37°54' W 122°22'2 0.7
2016-Jun-26 21:33N 37°55' W 122°25'5 5.5
2016-Jun-26 20:33N 38°00' W 122°24'7 7.3
2016-Jun-26 19:33N 38°04' W 122°16'6 1.2
2016-Jun-26 14:26N 38°02' W 122°08'1 0.7
2016-Jun-26 13:33N 38°02' W 122°09'4 3.8
2016-Jun-26 12:33N 38°04' W 122°13'7 6.9
2016-Jun-26 11:33N 38°02' W 122°21'7 6.4
2016-Jun-26 10:32N 37°56' W 122°26'3 0.5
2016-Jun-26 03:22N 37°54' W 122°22'0 0.0
2016-Jun-26 02:16N 37°54' W 122°22'0 0.0
2016-Jun-26 01:31N 37°54' W 122°22'0 0.0
2016-Jun-26 00:34N 37°54' W 122°22'0 0.0
2016-Jun-25 23:28N 37°54' W 122°22'0 0.0
2016-Jun-25 21:28N 37°54' W 122°22'0 0.0
2016-Jun-25 20:31N 37°54' W 122°22'0 0.0
2016-Jun-25 15:28N 37°54' W 122°22'0 0.0
2016-Jun-25 14:34N 37°54' W 122°22'0 0.0
2016-Jun-25 13:34N 37°54' W 122°22'0 0.0
2016-Jun-25 12:16N 37°54' W 122°22'0 0.0
2016-Jun-25 11:34N 37°54' W 122°22'0 0.0
2016-Jun-25 06:16N 37°54' W 122°22'0 0.0
2016-Jun-25 03:31N 37°54' W 122°22'0 0.0
2016-Jun-24 23:19N 37°54' W 122°22'0 0.0
2016-Jun-24 21:27N 37°54' W 122°22'0 0.0
2016-Jun-24 14:09N 37°54' W 122°22'0 0.0
2016-Jun-24 10:15N 37°54' W 122°22'0 0.0
2016-Jun-24 08:24N 37°54' W 122°22'0 0.0
2016-Jun-24 03:25N 37°54' W 122°22'7 8.0
2016-Jun-24 02:33N 38°01' W 122°23'7 6.9
2016-Jun-24 01:30N 38°06' W 122°16'0 0.0
2016-Jun-23 23:32N 38°06' W 122°16'0 0.0
2016-Jun-23 22:33N 38°06' W 122°16'0 0.1
2016-Jun-23 21:29N 38°06' W 122°16'2 2.1
2016-Jun-23 20:33N 38°04' W 122°15'10 9.7
2016-Jun-23 19:33N 37°59' W 122°26'5 0.5
2016-Jun-23 08:16N 37°54' W 122°22'0 0.0
2016-Jun-23 07:04N 37°54' W 122°22'4 0.2
2016-Jun-22 09:33N 37°51' W 122°23'6 6.1
2016-Jun-22 08:33N 37°45' W 122°20'0 0.0
2016-Jun-22 07:33N 37°45' W 122°20'0 0.1
2016-Jun-22 06:33N 37°45' W 122°20'0 0.1
2016-Jun-22 05:33N 37°45' W 122°20'0 0.0
2016-Jun-22 04:33N 37°45' W 122°20'3 3.2
2016-Jun-22 03:33N 37°48' W 122°18'0 0.0
2016-Jun-22 02:23N 37°48' W 122°18'0 0.0
2016-Jun-22 01:32N 37°48' W 122°18'0 0.0
2016-Jun-22 00:32N 37°48' W 122°18'2 2.1
2016-Jun-21 23:34N 37°48' W 122°20'4 4.1
2016-Jun-21 22:33N 37°51' W 122°24'3 0.5
2016-Jun-21 16:32N 37°54' W 122°22'0 0.1
2016-Jun-21 15:29N 37°54' W 122°22'0 0.0
2016-Jun-21 14:31N 37°54' W 122°22'0 0.0
2016-Jun-21 13:33N 37°54' W 122°22'0 0.0
2016-Jun-21 12:33N 37°54' W 122°22'0 0.0
2016-Jun-21 11:33N 37°54' W 122°22'0 0.0
2016-Jun-21 10:33N 37°54' W 122°22'0 0.0
2016-Jun-21 09:33N 37°54' W 122°22'0 0.0
2016-Jun-21 08:33N 37°54' W 122°22'0 0.0
2016-Jun-21 07:34N 37°54' W 122°22'0 0.0
2016-Jun-21 04:33N 37°54' W 122°22'0 0.0
2016-Jun-21 03:33N 37°54' W 122°22'0 0.0
2016-Jun-21 02:32N 37°54' W 122°22'0 0.0
2016-Jun-20 23:33N 37°54' W 122°22'0 0.1
2016-Jun-20 22:33N 37°54' W 122°22'1 1.1
2016-Jun-20 21:34N 37°54' W 122°24'7 6.8
2016-Jun-20 20:33N 37°48' W 122°20'2 2.0
2016-Jun-20 19:33N 37°48' W 122°18'0 0.0
2016-Jun-20 18:33N 37°48' W 122°18'0 0.0
2016-Jun-20 17:34N 37°48' W 122°18'0 0.0
2016-Jun-20 16:34N 37°48' W 122°18'0 0.0
2016-Jun-20 15:34N 37°48' W 122°18'0 0.4
2016-Jun-20 14:34N 37°48' W 122°18'6 5.8
2016-Jun-20 13:33N 37°52' W 122°24'  

Dump ship's entire track history